Cbeh — BOHM — position and weather

sailwx.info

Track history (hours):
 
Tides and Currents Weather Stations Pressure Air Temp Water Temp Dewpoint Dewpoint Depression Visibility Wind Speed Wind Dir Waves Ship Positions

Cbeh

Last reported at 2017-Sep-22 01:59 UTC. Time now 2017-Sep-22 08:12 UTC.
Position N 22°52' E 113°33'.

Length 222 m; draft 5.4 m.

Type: Wing in ground effect craft. MMSI: 412228000.

Date/timePositionNaut miles runAvg speedWind from/ knotsBaromVisibWave heightAir tempDewpointWater temp
2017-Sep-22 01:59N 22°52' E 113°33'0 0.0
2017-Sep-22 01:29N 22°52' E 113°33'0 0.0
2017-Sep-22 00:59N 22°52' E 113°33'0 0.0
2017-Sep-22 00:29N 22°52' E 113°33'0 0.0
2017-Sep-21 23:59N 22°52' E 113°33'0 0.0
2017-Sep-21 23:30N 22°52' E 113°33'0 0.0
2017-Sep-21 22:59N 22°52' E 113°33'0 0.0
2017-Sep-21 22:29N 22°52' E 113°33'0 0.0
2017-Sep-21 21:59N 22°52' E 113°33'0 0.0
2017-Sep-21 21:26N 22°52' E 113°33'0 0.0
2017-Sep-21 20:44N 22°52' E 113°33'0 0.0
2017-Sep-21 19:50N 22°52' E 113°33'0 0.0
2017-Sep-21 19:20N 22°52' E 113°33'0 0.0
2017-Sep-21 17:50N 22°52' E 113°33'0 0.0
2017-Sep-21 17:26N 22°52' E 113°33'0 0.0
2017-Sep-21 16:59N 22°52' E 113°33'0 0.1
2017-Sep-21 16:30N 22°52' E 113°33'1 2.0
2017-Sep-21 16:00N 22°52' E 113°34'2 4.1
2017-Sep-21 15:30N 22°54' E 113°35'1 1.0
2017-Sep-21 14:58N 22°54' E 113°35'0 0.0
2017-Sep-21 14:29N 22°54' E 113°35'0 0.0
2017-Sep-21 13:58N 22°54' E 113°35'0 0.0
2017-Sep-21 13:29N 22°54' E 113°35'0 0.0
2017-Sep-21 12:58N 22°54' E 113°35'0 0.0
2017-Sep-21 12:28N 22°54' E 113°35'0 0.0
2017-Sep-21 11:58N 22°54' E 113°35'0 0.0
2017-Sep-21 11:28N 22°54' E 113°35'0 0.0
2017-Sep-21 10:58N 22°54' E 113°35'0 0.0
2017-Sep-21 10:28N 22°54' E 113°35'0 0.0
2017-Sep-21 09:58N 22°54' E 113°35'0 0.0
2017-Sep-21 09:28N 22°54' E 113°35'0 0.0
2017-Sep-21 08:58N 22°54' E 113°35'0 0.0
2017-Sep-21 08:29N 22°54' E 113°35'0 0.0
2017-Sep-21 07:58N 22°54' E 113°35'0 0.0
2017-Sep-21 07:28N 22°54' E 113°35'0 0.0
2017-Sep-21 06:58N 22°54' E 113°35'0 0.0
2017-Sep-21 06:28N 22°54' E 113°35'0 0.0
2017-Sep-21 05:58N 22°54' E 113°35'0 0.0
2017-Sep-21 05:28N 22°54' E 113°35'1 1.3
2017-Sep-21 05:01N 22°54' E 113°35'3 6.0
2017-Sep-21 04:30N 22°51' E 113°34'2 3.7
2017-Sep-21 04:01N 22°49' E 113°36'3 6.1
2017-Sep-21 03:31N 22°47' E 113°38'2 4.2
2017-Sep-21 03:01N 22°45' E 113°39'5 9.5
2017-Sep-21 02:30N 22°41' E 113°41'510.4
2017-Sep-21 02:00N 22°36' E 113°43'16312.7
2017-Sep-20 13:06N 22°52' E 116°39'215.5
2017-Sep-20 12:59N 22°53' E 116°40'22 8.0
2017-Sep-20 10:17N 23°07' E 116°58'1 1.2
2017-Sep-20 09:49N 23°07' E 116°58'1 1.5
2017-Sep-20 09:24N 23°08' E 116°59'2 1.6
2017-Sep-20 08:05N 23°10' E 116°60'0 0.6
2017-Sep-20 07:59N 23°10' E 116°60'1 1.1
2017-Sep-20 07:25N 23°10' E 117°01'1 3.5
2017-Sep-20 06:59N 23°10' E 117°02'713.6
2017-Sep-20 06:30N 23°09' E 117°09'816.5
2017-Sep-20 06:00N 23°11' E 117°18'6216.2
2017-Sep-20 02:11N 23°51' E 118°09'314.9
2017-Sep-20 01:57N 23°53' E 118°12'715.5
2017-Sep-20 01:30N 23°58' E 118°18'1215.4
2017-Sep-20 00:45N 24°05' E 118°28'415.0
2017-Sep-20 00:30N 24°08' E 118°31'2115.1
2017-Sep-19 23:07N 24°22' E 118°47'215.0
2017-Sep-19 23:00N 24°23' E 118°49'1015.1
2017-Sep-19 22:22N 24°30' E 118°57'715.2
2017-Sep-19 21:55N 24°35' E 119°01'715.5
2017-Sep-19 21:30N 24°40' E 119°05'815.5
2017-Sep-19 21:01N 24°45' E 119°12'3115.6
2017-Sep-19 19:01N 25°04' E 119°39'215.6
2017-Sep-19 18:53N 25°05' E 119°41'24815.9
2017-Sep-19 03:19N 28°35' E 122°09'515.5
2017-Sep-19 03:00N 28°39' E 122°12'2015.2
2017-Sep-19 01:41N 28°56' E 122°25'415.1
2017-Sep-19 01:24N 28°59' E 122°27'714.6
2017-Sep-19 00:54N 29°05' E 122°32'1015.2
2017-Sep-19 00:14N 29°15' E 122°35'3714.8
2017-Sep-18 21:42N 29°49' E 122°52'415.6
2017-Sep-18 21:26N 29°52' E 122°55'1715.0
2017-Sep-18 20:19N 30°08' E 123°02'1215.8
2017-Sep-18 19:35N 30°20' E 123°01'116.3
2017-Sep-18 19:30N 30°21' E 123°00'816.2
2017-Sep-18 19:00N 30°29' E 122°59'814.9
2017-Sep-18 18:27N 30°37' E 123°02'915.9
2017-Sep-18 17:54N 30°46' E 122°59'615.8
2017-Sep-18 17:30N 30°52' E 122°59'815.4
2017-Sep-18 16:59N 31°00' E 122°59'916.3
2017-Sep-18 16:27N 31°09' E 122°58'715.7
2017-Sep-18 16:00N 31°16' E 122°58'815.3
2017-Sep-18 15:31N 31°23' E 122°56'713.6
2017-Sep-18 15:00N 31°30' E 122°56'713.5
2017-Sep-18 14:31N 31°36' E 122°57'714.2
2017-Sep-18 14:00N 31°44' E 122°58'714.4
2017-Sep-18 13:30N 31°51' E 122°58'714.5
2017-Sep-18 13:00N 31°58' E 122°57'1014.7
2017-Sep-18 12:20N 32°08' E 122°57'1515.4
2017-Sep-18 11:21N 32°23' E 122°57'1016.6
2017-Sep-18 10:45N 32°33' E 122°57'416.9
2017-Sep-18 10:30N 32°37' E 122°57'25016.4
2017-Sep-17 19:14N 36°47' E 122°43'415.3
2017-Sep-17 19:00N 36°50' E 122°44'815.3
2017-Sep-17 18:30N 36°58' E 122°46'1215.6
2017-Sep-17 17:45N 37°10' E 122°47'4314.9
2017-Sep-17 14:52N 37°42' E 122°12'617.4
2017-Sep-17 14:30N 37°45' E 122°05'817.0
2017-Sep-17 14:00N 37°47' E 121°54'916.8
2017-Sep-17 13:30N 37°49' E 121°44'816.7
2017-Sep-17 13:01N 37°54' E 121°35'816.1
2017-Sep-17 12:31N 37°54' E 121°25'816.5
2017-Sep-17 12:00N 37°55' E 121°15'16715.7
2017-Sep-17 01:25N 38°57' E 117°57'511.7
2017-Sep-17 01:00N 38°58' E 117°51'4 8.4
2017-Sep-17 00:30N 39°00' E 117°47'1 2.2
2017-Sep-16 23:56N 39°01' E 117°46'0 0.0
2017-Sep-16 23:25N 39°01' E 117°46'0 0.0
2017-Sep-16 22:55N 39°01' E 117°46'0 0.0
2017-Sep-16 22:25N 39°01' E 117°46'0 0.0
2017-Sep-16 21:55N 39°01' E 117°46'0 0.0
2017-Sep-16 21:26N 39°01' E 117°46'0 0.0
2017-Sep-16 20:49N 39°01' E 117°46'0 0.0
2017-Sep-16 20:25N 39°01' E 117°46'0 0.0
2017-Sep-16 19:56N 39°01' E 117°46'0 0.0
2017-Sep-16 19:26N 39°01' E 117°46'0 0.0
2017-Sep-16 18:55N 39°01' E 117°46'0 0.0
2017-Sep-16 18:25N 39°01' E 117°46'0 0.0
2017-Sep-16 17:55N 39°01' E 117°46'0 0.0
2017-Sep-16 17:25N 39°01' E 117°46'0 0.0
2017-Sep-16 16:55N 39°01' E 117°46'0 0.0
2017-Sep-16 16:25N 39°01' E 117°46'0 0.0
2017-Sep-16 15:56N 39°01' E 117°46'0 0.0
2017-Sep-16 15:25N 39°01' E 117°46'0 0.0
2017-Sep-16 14:49N 39°01' E 117°46'0 0.0
2017-Sep-16 14:25N 39°01' E 117°46'0 0.0
2017-Sep-16 13:55N 39°01' E 117°46'0 0.0
2017-Sep-16 13:25N 39°01' E 117°46'0 0.0
2017-Sep-16 12:55N 39°01' E 117°46'0 0.0
2017-Sep-16 12:25N 39°01' E 117°46'0 0.0
2017-Sep-16 11:49N 39°01' E 117°46'0 0.0
2017-Sep-16 11:25N 39°01' E 117°46'0 0.0
2017-Sep-16 10:55N 39°01' E 117°46'0 0.0
2017-Sep-16 10:25N 39°01' E 117°46'0 0.0
2017-Sep-16 09:55N 39°01' E 117°46'0 0.0
2017-Sep-16 09:25N 39°01' E 117°46'0 0.0
2017-Sep-16 08:37N 39°01' E 117°46'0 0.0
2017-Sep-16 08:25N 39°01' E 117°46'0 0.0
2017-Sep-16 07:55N 39°01' E 117°46'0 0.0
2017-Sep-16 07:19N 39°01' E 117°46'0 0.0
2017-Sep-16 06:55N 39°01' E 117°46'0 0.0
2017-Sep-16 06:25N 39°01' E 117°46'0 0.0
2017-Sep-16 05:49N 39°01' E 117°46'0 0.0
2017-Sep-16 05:25N 39°01' E 117°46'0 0.0
2017-Sep-16 04:55N 39°01' E 117°46'0 0.0
2017-Sep-16 02:37N 39°01' E 117°46'0 0.0
2017-Sep-16 02:19N 39°01' E 117°46'0 0.0
2017-Sep-16 01:55N 39°01' E 117°46'0 0.0
2017-Sep-16 01:25N 39°01' E 117°46'0 0.0
2017-Sep-16 00:55N 39°01' E 117°46'0 0.0
2017-Sep-16 00:26N 39°01' E 117°46'0 0.0
2017-Sep-15 23:43N 39°01' E 117°46'0 0.0
2017-Sep-15 23:07N 39°01' E 117°46'0 0.0
2017-Sep-15 22:55N 39°01' E 117°46'0 0.0
2017-Sep-15 22:25N 39°01' E 117°46'0 0.0
2017-Sep-15 21:55N 39°01' E 117°46'0 0.0
2017-Sep-15 21:19N 39°01' E 117°46'0 0.0
2017-Sep-15 20:55N 39°01' E 117°46'0 0.0
2017-Sep-15 20:13N 39°01' E 117°46'0 0.0
2017-Sep-15 19:55N 39°01' E 117°46'0 0.1
2017-Sep-15 19:30N 39°01' E 117°46'2 5.1
2017-Sep-15 19:00N 38°59' E 117°47'5 9.2
2017-Sep-15 18:29N 38°57' E 117°53'37 1.9
2017-Sep-14 23:09N 38°49' E 118°39'3116.3
2017-Sep-14 21:14N 38°38' E 119°16'5916.1
2017-Sep-14 17:35N 38°06' E 120°19'315.8
2017-Sep-14 17:24N 38°06' E 120°23'615.2
2017-Sep-14 16:59N 38°04' E 120°31'715.1
2017-Sep-14 16:29N 38°02' E 120°40'714.9
2017-Sep-14 16:00N 38°01' E 120°49'815.2
2017-Sep-14 15:30N 37°60' E 120°58'815.5
2017-Sep-14 14:57N 37°57' E 121°09'715.8
2017-Sep-14 14:30N 37°56' E 121°18'816.4
2017-Sep-14 14:00N 37°56' E 121°28'916.8
2017-Sep-14 13:28N 37°53' E 121°39'816.8
2017-Sep-14 13:00N 37°52' E 121°48'816.9
2017-Sep-14 12:30N 37°49' E 121°58'916.8
2017-Sep-14 12:00N 37°45' E 122°08'816.5
2017-Sep-14 11:30N 37°43' E 122°18'916.2
2017-Sep-14 10:57N 37°40' E 122°29'1016.0
2017-Sep-14 10:20N 37°36' E 122°41'614.8
2017-Sep-14 09:53N 37°32' E 122°47'615.6
2017-Sep-14 09:30N 37°27' E 122°50'36716.3
2017-Sep-13 11:02N 31°20' E 122°33'215.6
2017-Sep-13 10:56N 31°19' E 122°32'715.6
2017-Sep-13 10:30N 31°12' E 122°32'612.3
2017-Sep-13 09:59N 31°06' E 122°30'715.0
2017-Sep-13 09:30N 31°06' E 122°22'713.5
2017-Sep-13 09:00N 31°08' E 122°14'612.5
2017-Sep-13 08:31N 31°12' E 122°09'713.1
2017-Sep-13 08:01N 31°14' E 122°01'612.9
2017-Sep-13 07:30N 31°16' E 121°54'613.0
2017-Sep-13 07:00N 31°18' E 121°47'612.3
2017-Sep-13 06:30N 31°20' E 121°40'1 2.5
2017-Sep-13 05:58N 31°21' E 121°39'0 0.0
2017-Sep-13 05:29N 31°21' E 121°39'0 0.0
2017-Sep-13 04:59N 31°21' E 121°39'0 0.0
2017-Sep-13 04:29N 31°21' E 121°39'0 0.0
2017-Sep-13 03:59N 31°21' E 121°39'0 0.0
2017-Sep-13 03:25N 31°21' E 121°39'0 0.0
2017-Sep-13 02:59N 31°21' E 121°39'0 0.0
2017-Sep-13 02:29N 31°21' E 121°39'0 0.0
2017-Sep-13 01:59N 31°21' E 121°39'0 0.0
2017-Sep-13 01:28N 31°21' E 121°39'0 0.0
2017-Sep-13 00:59N 31°21' E 121°39'0 0.0
2017-Sep-13 00:29N 31°21' E 121°39'0 0.0
2017-Sep-12 23:59N 31°21' E 121°39'0 0.0
2017-Sep-12 23:28N 31°21' E 121°39'0 0.0
2017-Sep-12 22:59N 31°21' E 121°39'0 0.0
2017-Sep-12 22:28N 31°21' E 121°39'0 0.0
2017-Sep-12 21:58N 31°21' E 121°39'0 0.0
2017-Sep-12 21:28N 31°21' E 121°39'0 0.0
2017-Sep-12 20:59N 31°21' E 121°39'0 0.0
2017-Sep-12 20:25N 31°21' E 121°39'0 0.0
2017-Sep-12 19:58N 31°21' E 121°39'0 0.0
2017-Sep-12 19:25N 31°21' E 121°39'0 0.0
2017-Sep-12 18:58N 31°21' E 121°39'0 0.5
2017-Sep-12 18:30N 31°21' E 121°39'3 6.0
2017-Sep-12 18:00N 31°20' E 121°42'510.3
2017-Sep-12 17:30N 31°18' E 121°48'610.7
2017-Sep-12 16:59N 31°16' E 121°54'7310.5
2017-Sep-12 10:02N 30°31' E 123°01'121.7
2017-Sep-12 10:00N 30°31' E 123°01'  
Track history (hours):
 
Tides and Currents Weather Stations Pressure Air Temp Water Temp Dewpoint Dewpoint Depression Visibility Wind Speed Wind Dir Waves Ship Positions

Cbeh

Last reported at 2017-Sep-22 01:59 UTC. Time now 2017-Sep-22 08:12 UTC.
Position N 22°52' E 113°33'.

Length 222 m; draft 5.4 m.

Type: Wing in ground effect craft. MMSI: 412228000.

Date/timePositionNaut miles runAvg speedWind from/ knotsBaromVisibWave heightAir tempDewpointWater temp
2017-Sep-22 01:59N 22°52' E 113°33'0 0.0
2017-Sep-22 01:29N 22°52' E 113°33'0 0.0
2017-Sep-22 00:59N 22°52' E 113°33'0 0.0
2017-Sep-22 00:29N 22°52' E 113°33'0 0.0
2017-Sep-21 23:59N 22°52' E 113°33'0 0.0
2017-Sep-21 23:30N 22°52' E 113°33'0 0.0
2017-Sep-21 22:59N 22°52' E 113°33'0 0.0
2017-Sep-21 22:29N 22°52' E 113°33'0 0.0
2017-Sep-21 21:59N 22°52' E 113°33'0 0.0
2017-Sep-21 21:26N 22°52' E 113°33'0 0.0
2017-Sep-21 20:44N 22°52' E 113°33'0 0.0
2017-Sep-21 19:50N 22°52' E 113°33'0 0.0
2017-Sep-21 19:20N 22°52' E 113°33'0 0.0
2017-Sep-21 17:50N 22°52' E 113°33'0 0.0
2017-Sep-21 17:26N 22°52' E 113°33'0 0.0
2017-Sep-21 16:59N 22°52' E 113°33'0 0.1
2017-Sep-21 16:30N 22°52' E 113°33'1 2.0
2017-Sep-21 16:00N 22°52' E 113°34'2 4.1
2017-Sep-21 15:30N 22°54' E 113°35'1 1.0
2017-Sep-21 14:58N 22°54' E 113°35'0 0.0
2017-Sep-21 14:29N 22°54' E 113°35'0 0.0
2017-Sep-21 13:58N 22°54' E 113°35'0 0.0
2017-Sep-21 13:29N 22°54' E 113°35'0 0.0
2017-Sep-21 12:58N 22°54' E 113°35'0 0.0
2017-Sep-21 12:28N 22°54' E 113°35'0 0.0
2017-Sep-21 11:58N 22°54' E 113°35'0 0.0
2017-Sep-21 11:28N 22°54' E 113°35'0 0.0
2017-Sep-21 10:58N 22°54' E 113°35'0 0.0
2017-Sep-21 10:28N 22°54' E 113°35'0 0.0
2017-Sep-21 09:58N 22°54' E 113°35'0 0.0
2017-Sep-21 09:28N 22°54' E 113°35'0 0.0
2017-Sep-21 08:58N 22°54' E 113°35'0 0.0
2017-Sep-21 08:29N 22°54' E 113°35'0 0.0
2017-Sep-21 07:58N 22°54' E 113°35'0 0.0
2017-Sep-21 07:28N 22°54' E 113°35'0 0.0
2017-Sep-21 06:58N 22°54' E 113°35'0 0.0
2017-Sep-21 06:28N 22°54' E 113°35'0 0.0
2017-Sep-21 05:58N 22°54' E 113°35'0 0.0
2017-Sep-21 05:28N 22°54' E 113°35'1 1.3
2017-Sep-21 05:01N 22°54' E 113°35'3 6.0
2017-Sep-21 04:30N 22°51' E 113°34'2 3.7
2017-Sep-21 04:01N 22°49' E 113°36'3 6.1
2017-Sep-21 03:31N 22°47' E 113°38'2 4.2
2017-Sep-21 03:01N 22°45' E 113°39'5 9.5
2017-Sep-21 02:30N 22°41' E 113°41'510.4
2017-Sep-21 02:00N 22°36' E 113°43'16312.7
2017-Sep-20 13:06N 22°52' E 116°39'215.5
2017-Sep-20 12:59N 22°53' E 116°40'22 8.0
2017-Sep-20 10:17N 23°07' E 116°58'1 1.2
2017-Sep-20 09:49N 23°07' E 116°58'1 1.5
2017-Sep-20 09:24N 23°08' E 116°59'2 1.6
2017-Sep-20 08:05N 23°10' E 116°60'0 0.6
2017-Sep-20 07:59N 23°10' E 116°60'1 1.1
2017-Sep-20 07:25N 23°10' E 117°01'1 3.5
2017-Sep-20 06:59N 23°10' E 117°02'713.6
2017-Sep-20 06:30N 23°09' E 117°09'816.5
2017-Sep-20 06:00N 23°11' E 117°18'6216.2
2017-Sep-20 02:11N 23°51' E 118°09'314.9
2017-Sep-20 01:57N 23°53' E 118°12'715.5
2017-Sep-20 01:30N 23°58' E 118°18'1215.4
2017-Sep-20 00:45N 24°05' E 118°28'415.0
2017-Sep-20 00:30N 24°08' E 118°31'2115.1
2017-Sep-19 23:07N 24°22' E 118°47'215.0
2017-Sep-19 23:00N 24°23' E 118°49'1015.1
2017-Sep-19 22:22N 24°30' E 118°57'715.2
2017-Sep-19 21:55N 24°35' E 119°01'715.5
2017-Sep-19 21:30N 24°40' E 119°05'815.5
2017-Sep-19 21:01N 24°45' E 119°12'3115.6
2017-Sep-19 19:01N 25°04' E 119°39'215.6
2017-Sep-19 18:53N 25°05' E 119°41'24815.9
2017-Sep-19 03:19N 28°35' E 122°09'515.5
2017-Sep-19 03:00N 28°39' E 122°12'2015.2
2017-Sep-19 01:41N 28°56' E 122°25'415.1
2017-Sep-19 01:24N 28°59' E 122°27'714.6
2017-Sep-19 00:54N 29°05' E 122°32'1015.2
2017-Sep-19 00:14N 29°15' E 122°35'3714.8
2017-Sep-18 21:42N 29°49' E 122°52'415.6
2017-Sep-18 21:26N 29°52' E 122°55'1715.0
2017-Sep-18 20:19N 30°08' E 123°02'1215.8
2017-Sep-18 19:35N 30°20' E 123°01'116.3
2017-Sep-18 19:30N 30°21' E 123°00'816.2
2017-Sep-18 19:00N 30°29' E 122°59'814.9
2017-Sep-18 18:27N 30°37' E 123°02'915.9
2017-Sep-18 17:54N 30°46' E 122°59'615.8
2017-Sep-18 17:30N 30°52' E 122°59'815.4
2017-Sep-18 16:59N 31°00' E 122°59'916.3
2017-Sep-18 16:27N 31°09' E 122°58'715.7
2017-Sep-18 16:00N 31°16' E 122°58'815.3
2017-Sep-18 15:31N 31°23' E 122°56'713.6
2017-Sep-18 15:00N 31°30' E 122°56'713.5
2017-Sep-18 14:31N 31°36' E 122°57'714.2
2017-Sep-18 14:00N 31°44' E 122°58'714.4
2017-Sep-18 13:30N 31°51' E 122°58'714.5
2017-Sep-18 13:00N 31°58' E 122°57'1014.7
2017-Sep-18 12:20N 32°08' E 122°57'1515.4
2017-Sep-18 11:21N 32°23' E 122°57'1016.6
2017-Sep-18 10:45N 32°33' E 122°57'416.9
2017-Sep-18 10:30N 32°37' E 122°57'25016.4
2017-Sep-17 19:14N 36°47' E 122°43'415.3
2017-Sep-17 19:00N 36°50' E 122°44'815.3
2017-Sep-17 18:30N 36°58' E 122°46'1215.6
2017-Sep-17 17:45N 37°10' E 122°47'4314.9
2017-Sep-17 14:52N 37°42' E 122°12'617.4
2017-Sep-17 14:30N 37°45' E 122°05'817.0
2017-Sep-17 14:00N 37°47' E 121°54'916.8
2017-Sep-17 13:30N 37°49' E 121°44'816.7
2017-Sep-17 13:01N 37°54' E 121°35'816.1
2017-Sep-17 12:31N 37°54' E 121°25'816.5
2017-Sep-17 12:00N 37°55' E 121°15'16715.7
2017-Sep-17 01:25N 38°57' E 117°57'511.7
2017-Sep-17 01:00N 38°58' E 117°51'4 8.4
2017-Sep-17 00:30N 39°00' E 117°47'1 2.2
2017-Sep-16 23:56N 39°01' E 117°46'0 0.0
2017-Sep-16 23:25N 39°01' E 117°46'0 0.0
2017-Sep-16 22:55N 39°01' E 117°46'0 0.0
2017-Sep-16 22:25N 39°01' E 117°46'0 0.0
2017-Sep-16 21:55N 39°01' E 117°46'0 0.0
2017-Sep-16 21:26N 39°01' E 117°46'0 0.0
2017-Sep-16 20:49N 39°01' E 117°46'0 0.0
2017-Sep-16 20:25N 39°01' E 117°46'0 0.0
2017-Sep-16 19:56N 39°01' E 117°46'0 0.0
2017-Sep-16 19:26N 39°01' E 117°46'0 0.0
2017-Sep-16 18:55N 39°01' E 117°46'0 0.0
2017-Sep-16 18:25N 39°01' E 117°46'0 0.0
2017-Sep-16 17:55N 39°01' E 117°46'0 0.0
2017-Sep-16 17:25N 39°01' E 117°46'0 0.0
2017-Sep-16 16:55N 39°01' E 117°46'0 0.0
2017-Sep-16 16:25N 39°01' E 117°46'0 0.0
2017-Sep-16 15:56N 39°01' E 117°46'0 0.0
2017-Sep-16 15:25N 39°01' E 117°46'0 0.0
2017-Sep-16 14:49N 39°01' E 117°46'0 0.0
2017-Sep-16 14:25N 39°01' E 117°46'0 0.0
2017-Sep-16 13:55N 39°01' E 117°46'0 0.0
2017-Sep-16 13:25N 39°01' E 117°46'0 0.0
2017-Sep-16 12:55N 39°01' E 117°46'0 0.0
2017-Sep-16 12:25N 39°01' E 117°46'0 0.0
2017-Sep-16 11:49N 39°01' E 117°46'0 0.0
2017-Sep-16 11:25N 39°01' E 117°46'0 0.0
2017-Sep-16 10:55N 39°01' E 117°46'0 0.0
2017-Sep-16 10:25N 39°01' E 117°46'0 0.0
2017-Sep-16 09:55N 39°01' E 117°46'0 0.0
2017-Sep-16 09:25N 39°01' E 117°46'0 0.0
2017-Sep-16 08:37N 39°01' E 117°46'0 0.0
2017-Sep-16 08:25N 39°01' E 117°46'0 0.0
2017-Sep-16 07:55N 39°01' E 117°46'0 0.0
2017-Sep-16 07:19N 39°01' E 117°46'0 0.0
2017-Sep-16 06:55N 39°01' E 117°46'0 0.0
2017-Sep-16 06:25N 39°01' E 117°46'0 0.0
2017-Sep-16 05:49N 39°01' E 117°46'0 0.0
2017-Sep-16 05:25N 39°01' E 117°46'0 0.0
2017-Sep-16 04:55N 39°01' E 117°46'0 0.0
2017-Sep-16 02:37N 39°01' E 117°46'0 0.0
2017-Sep-16 02:19N 39°01' E 117°46'0 0.0
2017-Sep-16 01:55N 39°01' E 117°46'0 0.0
2017-Sep-16 01:25N 39°01' E 117°46'0 0.0
2017-Sep-16 00:55N 39°01' E 117°46'0 0.0
2017-Sep-16 00:26N 39°01' E 117°46'0 0.0
2017-Sep-15 23:43N 39°01' E 117°46'0 0.0
2017-Sep-15 23:07N 39°01' E 117°46'0 0.0
2017-Sep-15 22:55N 39°01' E 117°46'0 0.0
2017-Sep-15 22:25N 39°01' E 117°46'0 0.0
2017-Sep-15 21:55N 39°01' E 117°46'0 0.0
2017-Sep-15 21:19N 39°01' E 117°46'0 0.0
2017-Sep-15 20:55N 39°01' E 117°46'0 0.0
2017-Sep-15 20:13N 39°01' E 117°46'0 0.0
2017-Sep-15 19:55N 39°01' E 117°46'0 0.1
2017-Sep-15 19:30N 39°01' E 117°46'2 5.1
2017-Sep-15 19:00N 38°59' E 117°47'5 9.2
2017-Sep-15 18:29N 38°57' E 117°53'37 1.9
2017-Sep-14 23:09N 38°49' E 118°39'3116.3
2017-Sep-14 21:14N 38°38' E 119°16'5916.1
2017-Sep-14 17:35N 38°06' E 120°19'315.8
2017-Sep-14 17:24N 38°06' E 120°23'615.2
2017-Sep-14 16:59N 38°04' E 120°31'715.1
2017-Sep-14 16:29N 38°02' E 120°40'714.9
2017-Sep-14 16:00N 38°01' E 120°49'815.2
2017-Sep-14 15:30N 37°60' E 120°58'815.5
2017-Sep-14 14:57N 37°57' E 121°09'715.8
2017-Sep-14 14:30N 37°56' E 121°18'816.4
2017-Sep-14 14:00N 37°56' E 121°28'916.8
2017-Sep-14 13:28N 37°53' E 121°39'816.8
2017-Sep-14 13:00N 37°52' E 121°48'816.9
2017-Sep-14 12:30N 37°49' E 121°58'916.8
2017-Sep-14 12:00N 37°45' E 122°08'816.5
2017-Sep-14 11:30N 37°43' E 122°18'916.2
2017-Sep-14 10:57N 37°40' E 122°29'1016.0
2017-Sep-14 10:20N 37°36' E 122°41'614.8
2017-Sep-14 09:53N 37°32' E 122°47'615.6
2017-Sep-14 09:30N 37°27' E 122°50'36716.3
2017-Sep-13 11:02N 31°20' E 122°33'215.6
2017-Sep-13 10:56N 31°19' E 122°32'715.6
2017-Sep-13 10:30N 31°12' E 122°32'612.3
2017-Sep-13 09:59N 31°06' E 122°30'715.0
2017-Sep-13 09:30N 31°06' E 122°22'713.5
2017-Sep-13 09:00N 31°08' E 122°14'612.5
2017-Sep-13 08:31N 31°12' E 122°09'713.1
2017-Sep-13 08:01N 31°14' E 122°01'612.9
2017-Sep-13 07:30N 31°16' E 121°54'613.0
2017-Sep-13 07:00N 31°18' E 121°47'612.3
2017-Sep-13 06:30N 31°20' E 121°40'1 2.5
2017-Sep-13 05:58N 31°21' E 121°39'0 0.0
2017-Sep-13 05:29N 31°21' E 121°39'0 0.0
2017-Sep-13 04:59N 31°21' E 121°39'0 0.0
2017-Sep-13 04:29N 31°21' E 121°39'0 0.0
2017-Sep-13 03:59N 31°21' E 121°39'0 0.0
2017-Sep-13 03:25N 31°21' E 121°39'0 0.0
2017-Sep-13 02:59N 31°21' E 121°39'0 0.0
2017-Sep-13 02:29N 31°21' E 121°39'0 0.0
2017-Sep-13 01:59N 31°21' E 121°39'0 0.0
2017-Sep-13 01:28N 31°21' E 121°39'0 0.0
2017-Sep-13 00:59N 31°21' E 121°39'0 0.0
2017-Sep-13 00:29N 31°21' E 121°39'0 0.0
2017-Sep-12 23:59N 31°21' E 121°39'0 0.0
2017-Sep-12 23:28N 31°21' E 121°39'0 0.0
2017-Sep-12 22:59N 31°21' E 121°39'0 0.0
2017-Sep-12 22:28N 31°21' E 121°39'0 0.0
2017-Sep-12 21:58N 31°21' E 121°39'0 0.0
2017-Sep-12 21:28N 31°21' E 121°39'0 0.0
2017-Sep-12 20:59N 31°21' E 121°39'0 0.0
2017-Sep-12 20:25N 31°21' E 121°39'0 0.0
2017-Sep-12 19:58N 31°21' E 121°39'0 0.0
2017-Sep-12 19:25N 31°21' E 121°39'0 0.0
2017-Sep-12 18:58N 31°21' E 121°39'0 0.5
2017-Sep-12 18:30N 31°21' E 121°39'3 6.0
2017-Sep-12 18:00N 31°20' E 121°42'510.3
2017-Sep-12 17:30N 31°18' E 121°48'610.7
2017-Sep-12 16:59N 31°16' E 121°54'7310.5
2017-Sep-12 10:02N 30°31' E 123°01'121.7
2017-Sep-12 10:00N 30°31' E 123°01'  

Dump ship's entire track history